Time;durP1;ratioP1;P1;durP2;ratioP2;P2;SDS_P1;SDS_P2;PMS_P1;PMS_P2;Temp;Humidity;BMP_temperature;BMP_pressure;BME280_temperature;BME280_humidity;BME280_pressure;Samples;Min_cycle;Max_cycle;Signal;HPM_P1;HPM_P2
2022/03/13 00:00:02;;;;;;;26.80;14.60;;;4.80;47.00;;;;;;20835483;28;20232;-67
2022/03/13 00:10:05;;;;;;;26.27;14.30;;;4.60;47.10;;;;;;20834167;28;20263;-64
2022/03/13 00:20:08;;;;;;;24.17;14.60;;;4.60;47.60;;;;;;20832081;28;20239;-65
2022/03/13 00:30:10;;;;;;;31.67;15.07;;;4.60;48.10;;;;;;20831642;28;20261;-66
2022/03/13 00:40:13;;;;;;;28.03;15.53;;;4.50;47.80;;;;;;20831669;28;20286;-69
2022/03/13 00:50:15;;;;;;;31.03;15.53;;;4.30;48.60;;;;;;20831503;28;20230;-69
2022/03/13 01:00:17;;;;;;;27.57;13.90;;;4.20;48.80;;;;;;20830115;28;20236;-66
2022/03/13 01:10:19;;;;;;;26.10;14.40;;;4.00;48.80;;;;;;20829887;28;20246;-66
2022/03/13 01:20:21;;;;;;;31.87;15.33;;;3.90;49.20;;;;;;20829505;28;20243;-66
2022/03/13 01:30:23;;;;;;;28.30;15.53;;;3.80;50.60;;;;;;20829157;28;20207;-66
2022/03/13 01:40:25;;;;;;;35.07;17.43;;;3.70;50.50;;;;;;20829467;28;20232;-66
2022/03/13 01:50:27;;;;;;;50.97;16.63;;;3.90;51.00;;;;;;20845045;28;20261;-66
2022/03/13 02:00:29;;;;;;;33.93;14.90;;;3.80;50.30;;;;;;20844336;28;20702;-66
2022/03/13 02:10:31;;;;;;;33.33;16.73;;;3.80;49.90;;;;;;20843248;28;20216;-62
2022/03/13 02:20:44;;;;;;;29.07;16.27;;;3.80;50.00;;;;;;20841653;28;20251;-64
2022/03/13 02:30:47;;;;;;;32.07;16.40;;;3.80;50.40;;;;;;20841727;28;20567;-65
2022/03/13 02:40:48;;;;;;;35.87;18.53;;;3.80;50.60;;;;;;20840844;28;20795;-65
2022/03/13 02:50:51;;;;;;;30.13;16.10;;;3.60;50.50;;;;;;20840168;28;20213;-64
2022/03/13 03:00:53;;;;;;;30.70;15.77;;;3.50;50.40;;;;;;20839316;28;20240;-64
2022/03/13 03:10:54;;;;;;;28.90;14.73;;;3.50;50.50;;;;;;20838694;28;20218;-64
2022/03/13 03:20:56;;;;;;;24.63;12.93;;;3.40;50.60;;;;;;20837622;28;20290;-64
2022/03/13 03:31:00;;;;;;;28.13;14.03;;;3.40;50.80;;;;;;20837625;28;20207;-69
2022/03/13 03:41:02;;;;;;;23.10;13.73;;;3.40;50.70;;;;;;20835961;28;20326;-63
2022/03/13 03:51:03;;;;;;;21.40;12.80;;;3.20;51.30;;;;;;20835745;28;20215;-68
2022/03/13 04:01:05;;;;;;;21.67;12.97;;;3.20;51.80;;;;;;20835363;28;20646;-69
2022/03/13 04:11:08;;;;;;;32.20;13.33;;;3.10;51.60;;;;;;20833443;28;20235;-73
2022/03/13 04:21:10;;;;;;;24.43;12.13;;;3.10;52.10;;;;;;20831740;28;20623;-69
2022/03/13 04:31:13;;;;;;;20.90;12.13;;;3.00;51.80;;;;;;20832689;28;20242;-63
2022/03/13 04:41:15;;;;;;;21.90;12.20;;;3.00;51.60;;;;;;20833923;28;20297;-71
2022/03/13 04:51:16;;;;;;;22.83;12.27;;;3.10;51.80;;;;;;20839710;28;20226;-66
2022/03/13 05:01:19;;;;;;;21.97;11.17;;;3.00;51.80;;;;;;20900403;28;20234;-67
2022/03/13 05:11:21;;;;;;;25.13;11.67;;;2.90;51.70;;;;;;20854340;28;20203;-64
2022/03/13 05:21:23;;;;;;;23.77;11.10;;;2.70;51.90;;;;;;20831485;28;20264;-64
2022/03/13 05:31:25;;;;;;;20.77;12.33;;;2.70;52.30;;;;;;20835162;28;20211;-64
2022/03/13 05:41:27;;;;;;;18.83;11.00;;;2.60;52.40;;;;;;20829540;28;20251;-64
2022/03/13 05:51:36;;;;;;;22.33;12.00;;;2.70;52.60;;;;;;20828870;28;20218;-65
2022/03/13 06:01:38;;;;;;;20.07;11.30;;;2.70;52.60;;;;;;20829456;28;20238;-70
2022/03/13 06:11:39;;;;;;;17.10;9.23;;;2.60;52.40;;;;;;20828659;28;20290;-66
2022/03/13 06:21:42;;;;;;;25.77;10.40;;;2.80;51.50;;;;;;20827519;28;20768;-64
2022/03/13 06:31:44;;;;;;;21.90;11.50;;;2.90;51.70;;;;;;20836223;28;20211;-66
2022/03/13 06:41:45;;;;;;;21.30;10.70;;;3.00;51.80;;;;;;20840938;28;20563;-67
2022/03/13 06:51:47;;;;;;;16.97;10.20;;;3.40;51.80;;;;;;20840946;28;20682;-68
2022/03/13 07:01:49;;;;;;;19.90;10.50;;;3.50;51.50;;;;;;20840849;28;20236;-71
2022/03/13 07:11:52;;;;;;;16.63;10.30;;;3.70;51.40;;;;;;20839505;28;20294;-76
2022/03/13 07:21:54;;;;;;;14.70;8.83;;;4.10;50.40;;;;;;20838515;28;20704;-77
2022/03/13 07:31:56;;;;;;;12.87;8.03;;;4.20;50.60;;;;;;20839374;28;20263;-68
2022/03/13 07:41:58;;;;;;;14.27;7.80;;;4.90;47.10;;;;;;20870555;28;20239;-75
2022/03/13 07:52:00;;;;;;;12.83;8.00;;;5.30;45.30;;;;;;20886291;28;20254;-69
2022/03/13 08:02:02;;;;;;;12.00;6.90;;;5.40;45.40;;;;;;20867964;28;20252;-67
2022/03/13 08:12:05;;;;;;;14.00;7.30;;;5.70;44.00;;;;;;20914182;28;20199;-67
2022/03/13 08:22:07;;;;;;;10.90;6.97;;;6.20;41.90;;;;;;20904403;28;20735;-69
2022/03/13 08:32:09;;;;;;;10.20;6.53;;;6.50;40.70;;;;;;20911132;28;20211;-71
2022/03/13 08:42:11;;;;;;;10.00;6.53;;;6.60;40.60;;;;;;20908950;28;20291;-68
2022/03/13 08:52:13;;;;;;;12.73;6.80;;;6.90;39.20;;;;;;20898876;28;20202;-68
2022/03/13 09:02:15;;;;;;;9.77;6.57;;;7.30;37.10;;;;;;20824420;28;20247;-67
2022/03/13 09:12:17;;;;;;;9.13;6.37;;;7.50;36.10;;;;;;20826500;28;20216;-72
2022/03/13 09:22:19;;;;;;;10.90;7.13;;;7.70;35.30;;;;;;20826992;28;20246;-68
2022/03/13 09:32:22;;;;;;;9.37;6.70;;;7.80;35.90;;;;;;20827908;28;20214;-69
2022/03/13 09:42:24;;;;;;;11.77;7.27;;;8.20;34.80;;;;;;20829987;28;20235;-70
2022/03/13 09:52:26;;;;;;;10.87;7.47;;;8.30;34.80;;;;;;20847286;28;20261;-70
2022/03/13 10:02:35;;;;;;;12.23;7.40;;;8.50;35.30;;;;;;20917602;28;20226;-69
2022/03/13 10:12:40;;;;;;;10.57;7.13;;;8.80;34.50;;;;;;20925507;28;20214;-71
2022/03/13 10:22:48;;;;;;;13.07;7.70;;;8.90;35.00;;;;;;20902518;28;20245;-66
2022/03/13 10:32:57;;;;;;;10.60;7.33;;;9.30;33.90;;;;;;20841985;28;20258;-67
2022/03/13 10:43:09;;;;;;;11.50;7.60;;;9.30;33.90;;;;;;20874087;28;20714;-67
2022/03/13 10:53:14;;;;;;;10.63;7.37;;;9.60;33.70;;;;;;20905614;28;20208;-66
2022/03/13 11:03:17;;;;;;;12.07;8.03;;;9.70;34.40;;;;;;20920533;28;20238;-64
2022/03/13 11:13:23;;;;;;;11.60;8.07;;;10.00;32.80;;;;;;20921801;28;20211;-66
2022/03/13 11:23:25;;;;;;;14.73;7.57;;;10.20;32.80;;;;;;20933654;28;20236;-62
2022/03/13 11:33:39;;;;;;;13.67;8.43;;;10.30;33.30;;;;;;20924110;28;20205;-69
2022/03/13 11:43:43;;;;;;;15.40;8.20;;;10.50;33.30;;;;;;20918641;28;20237;-66
2022/03/13 11:53:48;;;;;;;18.87;9.63;;;10.70;32.90;;;;;;20918296;28;20534;-64
2022/03/13 12:04:09;;;;;;;16.83;8.90;;;11.50;36.00;;;;;;20917498;28;20236;-66
2022/03/13 12:14:13;;;;;;;13.80;8.37;;;11.70;36.20;;;;;;20903382;28;20205;-64
2022/03/13 12:24:17;;;;;;;13.20;8.63;;;12.00;35.00;;;;;;20876129;28;20334;-65
2022/03/13 12:34:25;;;;;;;13.07;8.47;;;12.20;33.60;;;;;;20874336;28;20632;-67
2022/03/13 12:44:30;;;;;;;13.30;8.87;;;12.60;33.10;;;;;;20830582;28;20696;-65
2022/03/13 12:54:33;;;;;;;14.90;9.23;;;12.80;32.60;;;;;;20831260;28;20200;-67
2022/03/13 13:04:38;;;;;;;18.07;9.13;;;12.90;31.90;;;;;;20829818;28;20627;-69
2022/03/13 13:14:41;;;;;;;12.57;9.13;;;13.10;31.40;;;;;;20831462;28;20229;-69
2022/03/13 13:24:54;;;;;;;13.80;9.47;;;13.30;31.60;;;;;;20829135;28;20236;-71
2022/03/13 13:35:07;;;;;;;14.00;9.53;;;13.60;31.70;;;;;;20829161;28;20996;-64
2022/03/13 13:45:21;;;;;;;15.70;9.43;;;13.90;30.70;;;;;;20883786;28;20289;-66
2022/03/13 13:55:23;;;;;;;25.63;9.50;;;13.90;31.30;;;;;;20901425;28;20278;-64
2022/03/13 14:05:25;;;;;;;13.80;9.70;;;14.10;31.70;;;;;;20844042;28;20236;-66
2022/03/13 14:15:47;;;;;;;14.67;9.33;;;14.40;31.10;;;;;;20898932;28;20210;-66
2022/03/13 14:25:48;;;;;;;16.57;9.77;;;14.70;30.80;;;;;;20923311;28;20267;-67
2022/03/13 14:35:50;;;;;;;12.97;9.57;;;16.90;29.20;;;;;;20924138;28;20201;-64
2022/03/13 14:45:52;;;;;;;13.83;9.30;;;17.40;29.40;;;;;;20930711;28;20239;-65
2022/03/13 14:55:54;;;;;;;10.93;8.23;;;20.00;28.20;;;;;;20904313;28;20830;-64
2022/03/13 15:05:56;;;;;;;10.47;8.13;;;21.60;27.90;;;;;;20841388;28;20224;-63
2022/03/13 15:15:58;;;;;;;12.43;8.10;;;22.00;29.90;;;;;;20839655;28;20310;-65
2022/03/13 15:26:00;;;;;;;11.18;8.35;;;24.70;27.80;;;;;;20837480;28;20251;-71
2022/03/13 15:36:02;;;;;;;12.00;8.98;;;24.20;26.90;;;;;;20838603;28;20565;-72
2022/03/13 15:46:03;;;;;;;14.00;9.77;;;22.90;26.80;;;;;;20837753;28;20295;-66
2022/03/13 15:56:05;;;;;;;12.13;9.40;;;22.00;26.70;;;;;;20837394;28;20262;-71
2022/03/13 16:06:07;;;;;;;18.17;9.90;;;18.70;28.00;;;;;;20834980;28;20374;-72
2022/03/13 16:16:09;;;;;;;16.73;9.60;;;17.70;28.70;;;;;;20834566;28;20604;-78
2022/03/13 16:26:11;;;;;;;29.97;11.13;;;17.10;28.10;;;;;;20832130;28;20247;-71
2022/03/13 16:36:15;;;;;;;15.17;9.23;;;16.80;28.30;;;;;;20833571;28;20273;-71
2022/03/13 16:46:16;;;;;;;13.20;8.97;;;16.20;28.30;;;;;;20832133;28;20295;-69
2022/03/13 16:56:18;;;;;;;13.90;9.70;;;15.70;28.40;;;;;;20830694;28;20205;-65
2022/03/13 17:06:23;;;;;;;18.27;10.27;;;15.30;28.70;;;;;;20828015;28;20242;-68
2022/03/13 17:16:25;;;;;;;16.40;10.77;;;14.90;28.90;;;;;;20828542;28;20677;-64
2022/03/13 17:26:27;;;;;;;18.53;10.77;;;14.60;29.20;;;;;;20829673;28;20331;-66
2022/03/13 17:36:34;;;;;;;14.57;10.30;;;14.20;29.70;;;;;;20835142;28;20301;-77
2022/03/13 17:46:36;;;;;;;39.97;18.60;;;13.80;30.10;;;;;;20839206;28;20291;-69
2022/03/13 17:56:39;;;;;;;21.47;11.63;;;13.50;31.40;;;;;;20829587;28;20571;-68
2022/03/13 18:06:42;;;;;;;15.47;9.67;;;13.10;32.40;;;;;;20828761;28;20231;-68
2022/03/13 18:16:43;;;;;;;18.43;11.13;;;12.60;33.20;;;;;;20828457;28;20611;-65
2022/03/13 18:26:45;;;;;;;22.10;11.03;;;12.50;34.10;;;;;;20833974;28;20957;-64
2022/03/13 18:36:47;;;;;;;20.50;12.60;;;12.20;34.40;;;;;;20842295;28;20268;-65
2022/03/13 18:46:50;;;;;;;17.30;11.00;;;11.90;35.30;;;;;;20841325;28;20575;-63
2022/03/13 18:56:52;;;;;;;19.10;12.23;;;11.50;35.80;;;;;;20860521;28;20211;-64
2022/03/13 19:06:54;;;;;;;19.80;11.37;;;12.10;37.50;;;;;;20908302;28;20225;-67
2022/03/13 19:16:57;;;;;;;21.17;12.60;;;11.00;36.70;;;;;;20837037;28;20244;-64
2022/03/13 19:26:59;;;;;;;22.67;13.17;;;10.90;37.50;;;;;;20880048;28;20236;-69
2022/03/13 19:37:00;;;;;;;24.13;13.80;;;10.40;37.50;;;;;;20916441;28;20256;-64
2022/03/13 19:47:04;;;;;;;27.07;14.10;;;10.30;37.70;;;;;;20913666;28;20239;-65
2022/03/13 19:57:05;;;;;;;22.90;12.50;;;10.10;38.70;;;;;;20915794;28;20233;-66
2022/03/13 20:07:08;;;;;;;21.10;12.27;;;9.90;40.50;;;;;;20915704;28;20583;-64
2022/03/13 20:17:09;;;;;;;20.47;12.87;;;9.70;40.80;;;;;;20913454;28;20667;-63
2022/03/13 20:27:11;;;;;;;24.50;15.03;;;9.40;41.70;;;;;;20913270;28;20421;-63
2022/03/13 20:37:13;;;;;;;24.00;14.43;;;9.20;42.30;;;;;;20912576;28;20617;-63
2022/03/13 20:47:15;;;;;;;22.70;14.37;;;9.10;42.50;;;;;;20911579;28;20235;-66
2022/03/13 20:57:18;;;;;;;23.90;12.97;;;8.90;42.50;;;;;;20908666;28;20589;-66
2022/03/13 21:07:20;;;;;;;25.50;14.63;;;8.70;44.20;;;;;;20909265;28;20242;-65
2022/03/13 21:17:22;;;;;;;23.93;14.30;;;8.50;44.90;;;;;;20910269;28;20217;-65
2022/03/13 21:27:23;;;;;;;26.20;14.53;;;8.50;45.10;;;;;;20909528;28;20241;-68
2022/03/13 21:37:25;;;;;;;26.53;15.30;;;8.30;45.70;;;;;;20909278;28;20210;-62
2022/03/13 21:47:28;;;;;;;24.07;14.13;;;8.10;45.60;;;;;;20909026;28;20236;-64
2022/03/13 21:57:29;;;;;;;25.37;14.20;;;7.90;45.40;;;;;;20910757;28;20208;-65
2022/03/13 22:07:31;;;;;;;21.37;13.00;;;7.70;46.40;;;;;;20924613;28;20760;-64
2022/03/13 22:17:34;;;;;;;21.20;12.40;;;7.70;46.80;;;;;;20924165;28;20212;-65
2022/03/13 22:27:36;;;;;;;23.80;12.80;;;7.60;46.80;;;;;;20923020;28;20294;-64
2022/03/13 22:37:38;;;;;;;24.33;13.57;;;7.50;47.10;;;;;;20922358;28;20259;-64
2022/03/13 22:47:40;;;;;;;25.30;14.27;;;7.30;47.40;;;;;;20921283;28;20362;-65
2022/03/13 22:57:45;;;;;;;22.73;14.43;;;7.10;48.10;;;;;;20908666;28;20244;-65
2022/03/13 23:07:47;;;;;;;26.30;14.83;;;7.00;47.70;;;;;;20836944;28;20241;-69
2022/03/13 23:17:48;;;;;;;21.67;13.30;;;7.00;48.30;;;;;;20836750;28;20252;-66
2022/03/13 23:27:50;;;;;;;20.10;11.57;;;6.90;48.10;;;;;;20835340;28;20642;-67
2022/03/13 23:37:52;;;;;;;20.50;11.87;;;6.50;46.20;;;;;;20837355;28;20213;-65
2022/03/13 23:47:55;;;;;;;18.40;11.90;;;6.30;46.20;;;;;;20836409;28;20325;-65
2022/03/13 23:57:57;;;;;;;17.93;11.27;;;6.10;46.80;;;;;;20842033;28;20205;-67
